EDDSEDDC

Guest
Details From EDDS - Stuttgart
To EDDC - Dresden
Flight Number -
Tags Generated
Created
Modified
Stats Distance 229 nm / 424 km
Max Altitude 0 ft / 0 m
Waypoints 3
Social Downloads 1
Likes 0
Share VATSIM

Download

Looking for another format? Having issues loading an existing format? Contact us
Advertisement - Login to hide

Notes

Generated

Route

EDDS DC022 EDDC

ID Type Via Altitude Latitude Longitude Leg Dist Tot Dist Heading (true) Name
O EDDS APT - 0 ft / 0 m 48.68573˚ 9.20013˚ - 0 nm - -
DC022 FIX - 0 ft / 0 m 51.12055˚ 13.75011˚ 228 nm 228 nm 49° / 52° -
O EDDC APT - 0 ft / 0 m 51.12425˚ 13.75544˚ 0 nm 229 nm 42° / 42° -

Altitude Profile

Advertisement - Login to hide

Weather


0- 5 10 15 20 25 30 35+ Temperature / ° C

Clouds and Precipitation
Forecast for 2017-12-14 06:00 UTC. Updated an hour ago

Ground ~20,000 ft ~40,000 ft Winds

EDDS

Details ICAO EDDS (STR)
Name Stuttgart
Region Germany - Civil
Timezone Europe/Berlin (UTC+1.0)
Stats Elevation 1,273 ft / 388 m (AMSL)
Location 48.689876° 9.221962°
Runways 1
Magnetic Variation 2.523° E

METAR

EDDS 140420Z AUTO 21007KT 170V240 //// R25/P2000N ///////// 05/04 Q0995

Decode

TAF

TAF TAF EDDS 132300Z 1400/1424 22015G25KT 9999 SCT015 BKN030 TEMPO 1400/1406 24020G40KT SHRA BKN005 BKN015CB TEMPO 1406/1409 24020G35KT TEMPO 1412/1424 SHSNRA BKN015CB PROB30 TEMPO 1412/1420 24020G35KT 3000 TSGS BKN010CB BECMG 1420/1422 20010KT

Decode

Departure Runways

ID Width Length Bearing (true) Bearing (mag) Surface Threshold Offset Overrun Length
07 148 ft / 45 m 10,950 ft / 3,337 m 73.96° 71.44° Concrete 981 ft / 299 m 157 ft / 48 m
25 148 ft / 45 m 10,950 ft / 3,337 m 253.99° 251.47° Concrete 0 ft / 0 m 157 ft / 48 m

EDDC

Details ICAO EDDC (DRS)
Name Dresden
Region Germany - Civil
Timezone Europe/Berlin (UTC+1.0)
Stats Elevation 752 ft / 229 m (AMSL)
Location 51.134366° 13.768065°
Runways 1
Magnetic Variation 3.799° E

METAR

EDDC 140420Z 21011KT 9999 BKN025 SCT030 05/02 Q0991

Decode

TAF

TAF EDDC 132300Z 1400/1424 18010G20KT 9999 SCT030 PROB30 TEMPO 1402/1405 20020G30KT 4500 RA BKN012 BECMG 1405/1408 22020G30KT PROB30 TEMPO 1408/1414 25025G40KT 3000 SHRASN BKN012TCU BECMG 1414/1417 22015G25KT BECMG 1417/1420 20010KT

Decode

Destination Runways

ID Width Length Bearing (true) Bearing (mag) Surface Threshold Offset Overrun Length
04 197 ft / 60 m 9,348 ft / 2,849 m 40.74° 36.94° Concrete 0 ft / 0 m 0 ft / 0 m
22 197 ft / 60 m 9,348 ft / 2,849 m 220.76° 216.96° Concrete 984 ft / 300 m 0 ft / 0 m

Approach Navaids

Runway Type Ident Frequency Range Bearing (true) Bearing (mag) Slope Elevation
04 Localiser IDRE 110.50 MHz 18 nm / 33 km 40.83° 37.03° - 703 ft / 214 m (AMSL)
04 Glidescope IDRE 110.50 MHz 10 nm / 19 km 40.83° 37.03° 3.00° 755 ft / 230 m (AMSL)
22 Localiser IDRW 109.70 MHz 18 nm / 33 km 220.81° 217.01° - 755 ft / 230 m (AMSL)
22 Glidescope IDRW 109.70 MHz 10 nm / 19 km 220.81° 217.01° 3.00° 703 ft / 214 m (AMSL)

Popular Alternatives